DHL1728 LUKK-LIRF
Flight info
| Callsign | DHL1728 |
|---|---|
| Flight time | N/A |
| Altitude | 40000 |
| Route | POGAV DCT DIRER DCT PEVON DCT VELUG/N0401F190 Z924 MOPUV |
| Aircraft | B752/M-SDE3FGHIM3RWXY/LB1 |
Departure
| Time | 2026-05-07 05:08 |
|---|---|
| Airport | Chişinău International Airport (LUKK) |
Arrival
| Time | N/A |
|---|---|
| Airport | Rome–Fiumicino Leonardo da Vinci International Airport (LIRF) |
| Time | Latitude | Longitude | Altitude | Speed | Heading |
|---|---|---|---|---|---|
| 2026-05-07 04:51 | 46.93470 | 28.91925 | 340 ft | 0 kts | 89° |
| 2026-05-07 05:04 | 46.93471 | 28.91944 | 339 ft | 4 kts | 89° |
| 2026-05-07 05:04 | 46.93457 | 28.92022 | 339 ft | 9 kts | 139° |
| 2026-05-07 05:04 | 46.93379 | 28.92038 | 339 ft | 10 kts | 181° |
| 2026-05-07 05:04 | 46.93293 | 28.92038 | 339 ft | 3 kts | 178° |
| 2026-05-07 05:05 | 46.93235 | 28.92031 | 339 ft | 11 kts | 191° |
| 2026-05-07 05:05 | 46.93098 | 28.91988 | 339 ft | 24 kts | 184° |
| 2026-05-07 05:05 | 46.92926 | 28.91990 | 339 ft | 23 kts | 180° |
| 2026-05-07 05:05 | 46.92799 | 28.91999 | 339 ft | 9 kts | 169° |
| 2026-05-07 05:06 | 46.92756 | 28.92056 | 339 ft | 8 kts | 96° |
| 2026-05-07 05:06 | 46.92756 | 28.92087 | 339 ft | 0 kts | 86° |
| 2026-05-07 05:07 | 46.92762 | 28.92371 | 339 ft | 67 kts | 88° |
| 2026-05-07 05:07 | 46.92784 | 28.93394 | 340 ft | 142 kts | 89° |
| 2026-05-07 05:07 | 46.92824 | 28.95083 | 552 ft | 193 kts | 89° |
| 2026-05-07 05:08 | 46.92846 | 28.97045 | 1600 ft | 196 kts | 89° |
| 2026-05-07 05:08 | 46.92901 | 28.98955 | 2294 ft | 196 kts | 88° |
| 2026-05-07 05:08 | 46.93001 | 29.00952 | 2485 ft | 222 kts | 85° |
| 2026-05-07 05:08 | 46.93127 | 29.03169 | 2820 ft | 243 kts | 86° |
| 2026-05-07 05:09 | 46.93268 | 29.05732 | 3608 ft | 247 kts | 86° |
| 2026-05-07 05:09 | 46.93588 | 29.08157 | 4344 ft | 251 kts | 66° |
| 2026-05-07 05:09 | 46.94605 | 29.10228 | 5138 ft | 254 kts | 49° |
| 2026-05-07 05:09 | 46.95701 | 29.12172 | 5907 ft | 256 kts | 60° |
| 2026-05-07 05:10 | 46.96204 | 29.14592 | 6654 ft | 258 kts | 88° |
| 2026-05-07 05:10 | 46.95847 | 29.17073 | 7380 ft | 260 kts | 116° |
| 2026-05-07 05:10 | 46.94680 | 29.19090 | 8024 ft | 266 kts | 144° |
| 2026-05-07 05:10 | 46.93240 | 29.20015 | 8593 ft | 269 kts | 165° |
| 2026-05-07 05:11 | 46.91550 | 29.20500 | 9207 ft | 273 kts | 169° |
| 2026-05-07 05:11 | 46.89793 | 29.20928 | 9832 ft | 276 kts | 175° |
| 2026-05-07 05:11 | 46.87946 | 29.20582 | 10341 ft | 285 kts | 199° |
| 2026-05-07 05:11 | 46.86181 | 29.19025 | 10391 ft | 312 kts | 223° |
| 2026-05-07 05:12 | 46.84893 | 29.16711 | 10441 ft | 336 kts | 239° |
| 2026-05-07 05:12 | 46.83891 | 29.13617 | 10477 ft | 361 kts | 248° |
| 2026-05-07 05:12 | 46.82977 | 29.10299 | 11044 ft | 368 kts | 250° |
| 2026-05-07 05:12 | 46.82411 | 29.06780 | 11670 ft | 372 kts | 265° |
| 2026-05-07 05:13 | 46.82499 | 29.03038 | 12344 ft | 374 kts | 279° |
| 2026-05-07 05:13 | 46.82869 | 28.99159 | 12986 ft | 379 kts | 276° |
| 2026-05-07 05:13 | 46.83030 | 28.95192 | 13603 ft | 383 kts | 272° |
| 2026-05-07 05:13 | 46.83073 | 28.91362 | 14169 ft | 386 kts | 271° |
| 2026-05-07 05:14 | 46.83064 | 28.87402 | 14725 ft | 390 kts | 270° |
| 2026-05-07 05:14 | 46.83025 | 28.83524 | 15249 ft | 393 kts | 270° |
| 2026-05-07 05:14 | 46.82974 | 28.79890 | 15721 ft | 396 kts | 270° |
| 2026-05-07 05:14 | 46.82909 | 28.75842 | 16240 ft | 399 kts | 270° |
| 2026-05-07 05:15 | 46.82838 | 28.71855 | 16749 ft | 402 kts | 270° |
| 2026-05-07 05:15 | 46.82762 | 28.67746 | 17271 ft | 405 kts | 270° |
| 2026-05-07 05:15 | 46.82684 | 28.63640 | 17775 ft | 407 kts | 270° |
| 2026-05-07 05:15 | 46.82602 | 28.59520 | 18289 ft | 410 kts | 270° |
| 2026-05-07 05:16 | 46.82520 | 28.55403 | 18775 ft | 412 kts | 270° |
| 2026-05-07 05:16 | 46.82433 | 28.51180 | 19271 ft | 415 kts | 270° |
| 2026-05-07 05:16 | 46.82347 | 28.47028 | 19745 ft | 417 kts | 270° |
| 2026-05-07 05:16 | 46.82255 | 28.42749 | 20237 ft | 419 kts | 271° |
| 2026-05-07 05:17 | 46.82141 | 28.38536 | 20720 ft | 422 kts | 268° |
| 2026-05-07 05:17 | 46.81669 | 28.34314 | 21151 ft | 427 kts | 257° |
| 2026-05-07 05:17 | 46.80803 | 28.30167 | 21617 ft | 430 kts | 253° |
| 2026-05-07 05:17 | 46.79887 | 28.26074 | 22039 ft | 433 kts | 253° |
| 2026-05-07 05:18 | 46.78950 | 28.21927 | 22471 ft | 435 kts | 253° |
| 2026-05-07 05:18 | 46.77983 | 28.17678 | 22941 ft | 437 kts | 253° |
| 2026-05-07 05:18 | 46.77039 | 28.13554 | 23320 ft | 440 kts | 254° |
| 2026-05-07 05:18 | 46.76059 | 28.09292 | 23777 ft | 441 kts | 254° |
| 2026-05-07 05:19 | 46.75082 | 28.05057 | 24178 ft | 444 kts | 253° |
| 2026-05-07 05:19 | 46.74112 | 28.00861 | 24583 ft | 445 kts | 254° |
| 2026-05-07 05:19 | 46.73109 | 27.96533 | 25022 ft | 447 kts | 254° |
| 2026-05-07 05:19 | 46.72120 | 27.92279 | 25400 ft | 449 kts | 254° |
| 2026-05-07 05:20 | 46.71117 | 27.87969 | 25765 ft | 451 kts | 254° |
| 2026-05-07 05:20 | 46.70261 | 27.83651 | 26154 ft | 450 kts | 259° |
| 2026-05-07 05:20 | 46.69541 | 27.79216 | 26528 ft | 453 kts | 258° |
| 2026-05-07 05:20 | 46.68692 | 27.74765 | 26917 ft | 455 kts | 256° |
| 2026-05-07 05:21 | 46.67780 | 27.70383 | 27254 ft | 457 kts | 255° |
| 2026-05-07 05:21 | 46.65821 | 27.61543 | 27984 ft | 461 kts | 255° |
| 2026-05-07 05:21 | 46.64809 | 27.57122 | 28360 ft | 462 kts | 254° |
| 2026-05-07 05:22 | 46.63798 | 27.52757 | 28739 ft | 462 kts | 254° |
| 2026-05-07 05:22 | 46.62761 | 27.48307 | 29033 ft | 465 kts | 254° |
| 2026-05-07 05:22 | 46.61720 | 27.43862 | 29350 ft | 467 kts | 254° |
| 2026-05-07 05:22 | 46.60677 | 27.39432 | 29704 ft | 468 kts | 254° |
| 2026-05-07 05:23 | 46.59619 | 27.34953 | 30218 ft | 465 kts | 253° |
| 2026-05-07 05:23 | 46.58584 | 27.30578 | 30663 ft | 463 kts | 253° |
| 2026-05-07 05:23 | 46.57543 | 27.26191 | 31134 ft | 461 kts | 253° |
| 2026-05-07 05:23 | 46.56511 | 27.21854 | 31704 ft | 457 kts | 253° |
| 2026-05-07 05:24 | 46.55485 | 27.17549 | 32206 ft | 454 kts | 252° |
| 2026-05-07 05:24 | 46.54460 | 27.13258 | 32633 ft | 454 kts | 253° |
| 2026-05-07 05:24 | 46.53429 | 27.08944 | 33297 ft | 447 kts | 252° |
| 2026-05-07 05:24 | 46.52428 | 27.04766 | 33730 ft | 447 kts | 252° |
| 2026-05-07 05:25 | 46.51413 | 27.00538 | 34249 ft | 444 kts | 252° |
| 2026-05-07 05:25 | 46.50400 | 26.96328 | 34683 ft | 444 kts | 251° |
| 2026-05-07 05:25 | 46.49387 | 26.92127 | 35163 ft | 442 kts | 251° |
| 2026-05-07 05:25 | 46.48386 | 26.87979 | 35569 ft | 442 kts | 250° |
| 2026-05-07 05:26 | 46.47368 | 26.83775 | 35917 ft | 442 kts | 251° |
| 2026-05-07 05:26 | 46.46349 | 26.79579 | 36302 ft | 442 kts | 250° |
| 2026-05-07 05:26 | 46.45323 | 26.75358 | 36724 ft | 439 kts | 250° |
| 2026-05-07 05:26 | 46.44312 | 26.71208 | 37051 ft | 440 kts | 251° |
| 2026-05-07 05:27 | 46.43307 | 26.67085 | 37373 ft | 439 kts | 250° |
| 2026-05-07 05:27 | 46.42265 | 26.62825 | 37630 ft | 440 kts | 250° |
| 2026-05-07 05:27 | 46.41367 | 26.59154 | 37880 ft | 440 kts | 250° |
| 2026-05-07 05:27 | 46.40336 | 26.54945 | 38141 ft | 440 kts | 250° |
| 2026-05-07 05:28 | 46.39341 | 26.50896 | 38478 ft | 437 kts | 250° |
| 2026-05-07 05:28 | 46.38330 | 26.46790 | 38648 ft | 440 kts | 251° |
| 2026-05-07 05:28 | 46.37297 | 26.42601 | 38960 ft | 438 kts | 250° |
| 2026-05-07 05:28 | 46.36284 | 26.38499 | 39070 ft | 440 kts | 250° |
| 2026-05-07 05:29 | 46.35276 | 26.34421 | 39261 ft | 441 kts | 250° |
| 2026-05-07 05:29 | 46.34258 | 26.30319 | 39549 ft | 438 kts | 250° |
| 2026-05-07 05:29 | 46.33230 | 26.26177 | 39729 ft | 440 kts | 250° |
| 2026-05-07 05:29 | 46.32193 | 26.22012 | 39893 ft | 440 kts | 250° |
| 2026-05-07 05:30 | 46.31184 | 26.17962 | 40037 ft | 422 kts | 249° |
| 2026-05-07 05:30 | 46.29220 | 26.10100 | 40044 ft | 424 kts | 249° |
| 2026-05-07 05:31 | 46.27199 | 26.02046 | 40054 ft | 433 kts | 250° |
| 2026-05-07 05:31 | 46.25132 | 25.93834 | 40047 ft | 438 kts | 250° |
| 2026-05-07 05:32 | 46.23041 | 25.85548 | 40046 ft | 440 kts | 250° |
| 2026-05-07 05:32 | 46.20955 | 25.77322 | 40039 ft | 439 kts | 250° |
| 2026-05-07 05:33 | 46.18874 | 25.69137 | 40045 ft | 437 kts | 250° |
| 2026-05-07 05:33 | 46.16772 | 25.60905 | 40049 ft | 438 kts | 250° |
| 2026-05-07 05:34 | 46.14677 | 25.52730 | 40043 ft | 438 kts | 250° |
| 2026-05-07 05:34 | 46.12575 | 25.44552 | 40048 ft | 438 kts | 250° |
| 2026-05-07 05:35 | 46.10444 | 25.36293 | 40045 ft | 440 kts | 250° |
| 2026-05-07 05:35 | 46.08598 | 25.29165 | 40047 ft | 438 kts | 249° |